Airfield :
LOGIN :

Register | Disclaimer

   EN    FR    IT 

 










Legend :    VFR   Marginal VFR   IFR   Intensive IFR   Very Intensive IFR
Visi :
Ceiling :
>= 8 km
>= 3000ft
5 to 8 km
1000 to 3000 ft
1500m to 5 km
500 to 1000 ft
800 to 1500m
200 to 500 ft
< 800m
< 200 ft
Symbols :   Thunderstorms  Fog  Heavy snow  Heavy precipitations  Wind > 20 kt
SIGMETs :     Misc.  Thunderstorms  Icing  Turbulence  Mountain Waves  Volcanic Ashes






- Airport Elevation : 44 ft
- IATA code : POR


EFPO - Pori

CURRENT METAR :
  • 250220Z AUTO 33002KT 4800 BR FEW002 BKN043 09/09 Q1020

EXPIRED METARs :
  • 250150Z AUTO 29003KT 4800 BR SCT002 BKN045 09/09 Q1020
  • 250120Z AUTO 28004KT 5000 -SHRA FEW030 BKN045 08/08 Q1020 RERA RESHRA
  • 250050Z AUTO 29004KT 7000 -RA BKN033 09/08 Q1019
  • 250020Z AUTO 29003KT 9999 FEW039 08/08 Q1019
  • 242350Z AUTO 29003KT 9999 BKN037 09/08 Q1019

Expired Forecast.



MET'MAP, your aeronautical weather chart ! - Copyright ORBIFLY December 2007 - Disclaimer

ORBIFLY MET'MAP TEAM :

Programming & Development : Alexandra Zaïnal
Concept & original design : Baudouin d'Aumeries
Assistance for programming : Marc-Olivier Méhu
Technical & hardware support : Manuel Goepfert

Contact : metmap@orbifly.com




SOURCES & CREDITS :

   NOAA